This is the latest recevied weather packets stored in our database for station/object PY2UEP-1. If no packets are shown the sender has not sent any weather packets the latest 1 day(s).
| Time | Temp. | Humidity | Pressure | Rain* | Wind** | Luminosity | Snow |
|---|---|---|---|---|---|---|---|
| 1778093750 | 29.44° C | 47% | 1019.2 hPa | 0 mm | - | - | - |
| 1778093450 | 28.89° C | 45% | 1019.3 hPa | 0 mm | - | - | - |
| 1778093150 | 28.89° C | 46% | 1019.3 hPa | 0 mm | - | - | - |
| 1778092850 | 28.89° C | 45% | 1019.2 hPa | 0 mm | - | - | - |
| 1778092250 | 29.44° C | 44% | 1019.2 hPa | 0 mm | - | - | - |
| 1778091950 | 28.89° C | 44% | 1019.2 hPa | 0 mm | - | - | - |
| 1778091650 | 29.44° C | 43% | 1019.4 hPa | 0 mm | - | - | - |
| 1778091350 | 29.44° C | 43% | 1019.2 hPa | 0 mm | - | - | - |
| 1778091050 | 28.89° C | 44% | 1019.2 hPa | 0 mm | - | - | - |
| 1778090450 | 29.44° C | 44% | 1019.5 hPa | 0 mm | - | - | - |
| 1778089850 | 30° C | 44% | 1019.6 hPa | 0 mm | - | - | - |
| 1778088650 | 30° C | 41% | 1019.9 hPa | 0 mm | - | - | - |
| 1778088051 | 29.44° C | 42% | 1020.2 hPa | 0 mm | - | - | - |
| 1778087750 | 29.44° C | 42% | 1020.4 hPa | 0 mm | - | - | - |
| 1778086850 | 30° C | 41% | 1020.6 hPa | 0 mm | - | - | - |
| 1778085950 | 29.44° C | 41% | 1020.7 hPa | 0 mm | - | - | - |
| 1778085050 | 29.44° C | 41% | 1021 hPa | 0 mm | - | - | - |
| 1778078451 | 28.33° C | 50% | 1023.2 hPa | 0 mm | - | - | - |
| 1778068250 | 22.78° C | 72% | 1023.6 hPa | 0 mm | - | - | - |
| 1778065249 | 21.11° C | 79% | 1023 hPa | 0 mm | - | - | - |
| 1778064949 | 20.56° C | 80% | 1022.9 hPa | 0 mm | - | - | - |
| 1778064349 | 20.56° C | 81% | 1022.6 hPa | 0 mm | - | - | - |
| 1778064049 | 20.56° C | 82% | 1022.6 hPa | 0 mm | - | - | - |
| 1778063449 | 20° C | 82% | 1022.6 hPa | 0 mm | - | - | - |
| 1778062549 | 19.44° C | 84% | 1022.2 hPa | 0 mm | - | - | - |
* Rain since midnight (hover to see other rain measurements)
** Current wind speed in m/s (hover to see current wind gust speed)